createdAt,value
2018-09-28T00:02:18.033Z,8.57
2018-09-28T00:06:21.403Z,10.03
2018-09-28T00:10:24.761Z,8.53
2018-09-28T00:14:28.137Z,9.83
2018-09-28T00:18:31.492Z,9.70
2018-09-28T00:22:34.842Z,9.60
2018-09-28T00:26:38.172Z,9.00
2018-09-28T00:30:41.529Z,9.70
2018-09-28T00:34:44.886Z,9.23
2018-09-28T00:38:48.251Z,11.00
2018-09-28T00:42:51.609Z,10.73
2018-09-28T00:46:54.952Z,9.00
2018-09-28T00:50:58.303Z,10.50
2018-09-28T00:55:01.663Z,10.60
2018-09-28T00:59:05.039Z,10.63
2018-09-28T01:03:08.388Z,9.80
2018-09-28T01:07:11.739Z,11.50
2018-09-28T01:11:15.115Z,11.30
2018-09-28T01:15:18.515Z,12.40
2018-09-28T01:19:21.871Z,11.57
2018-09-28T01:23:25.262Z,13.40
2018-09-28T01:27:28.590Z,14.10
2018-09-28T01:31:32.381Z,15.23
2018-09-28T01:35:35.772Z,14.60
2018-09-28T01:39:39.162Z,16.03
2018-09-28T01:43:42.517Z,15.33
2018-09-28T01:47:45.956Z,15.43
2018-09-28T01:51:49.313Z,14.30
2018-09-28T01:55:52.667Z,16.10
2018-09-28T01:59:56.025Z,16.00
2018-09-28T02:03:59.611Z,15.80
2018-09-28T02:08:02.942Z,15.17
2018-09-28T02:12:06.320Z,16.07
2018-09-28T02:16:09.727Z,16.47
2018-09-28T02:20:13.096Z,16.80
2018-09-28T02:24:16.443Z,15.83
2018-09-28T02:28:19.771Z,19.43
2018-09-28T02:32:23.138Z,19.10
2018-09-28T02:36:26.492Z,18.80
2018-09-28T02:40:29.853Z,18.30
2018-09-28T02:44:33.228Z,19.57
2018-09-28T02:48:36.573Z,20.97
2018-09-28T02:52:39.929Z,19.83
2018-09-28T02:56:43.294Z,19.17
2018-09-28T03:00:47.903Z,19.27
2018-09-28T03:04:51.261Z,21.10
2018-09-28T03:08:54.603Z,22.30
2018-09-28T03:12:57.989Z,22.03
2018-09-28T03:17:01.357Z,22.17
2018-09-28T03:21:04.725Z,22.00
2018-09-28T03:25:08.101Z,22.07
2018-09-28T03:29:11.457Z,21.33
2018-09-28T03:33:14.884Z,22.57
2018-09-28T03:37:18.251Z,21.30
2018-09-28T03:41:21.599Z,21.80
2018-09-28T03:45:24.960Z,22.03
2018-09-28T03:49:28.331Z,23.63
2018-09-28T03:53:31.680Z,22.80
2018-09-28T03:57:35.036Z,25.40
2018-09-28T04:01:38.383Z,23.63
2018-09-28T04:05:41.840Z,26.57
2018-09-28T04:09:45.205Z,26.37
2018-09-28T04:13:48.567Z,28.38
2018-09-28T04:17:51.999Z,27.23
2018-09-28T04:22:00.099Z,26.97
2018-09-28T04:26:03.464Z,26.77
2018-09-28T04:30:07.003Z,26.80
2018-09-28T04:34:10.352Z,26.40
2018-09-28T04:38:14.000Z,28.40
2018-09-28T04:42:17.370Z,27.13
2018-09-28T04:46:20.752Z,27.27
2018-09-28T04:50:24.120Z,27.03
2018-09-28T04:54:27.464Z,27.87
2018-09-28T04:58:30.852Z,25.10
2018-09-28T05:02:34.223Z,22.33
2018-09-28T05:06:37.587Z,22.73
2018-09-28T05:10:40.951Z,22.77
2018-09-28T05:14:44.315Z,20.07
2018-09-28T05:18:47.663Z,20.37
2018-09-28T05:22:51.021Z,18.57
2018-09-28T05:26:54.385Z,18.90
2018-09-28T05:30:58.065Z,18.23
2018-09-28T05:35:01.297Z,16.43
2018-09-28T05:39:07.098Z,15.23
2018-09-28T05:43:10.506Z,13.30
2018-09-28T05:47:13.871Z,11.70
2018-09-28T05:51:17.362Z,10.20
2018-09-28T05:55:20.724Z,8.33
2018-09-28T05:59:29.512Z,6.17
2018-09-28T06:03:32.909Z,4.53
2018-09-28T06:07:36.275Z,3.47
2018-09-28T06:11:40.633Z,2.90
2018-09-28T06:15:43.992Z,3.17
2018-09-28T06:19:47.356Z,2.97
2018-09-28T06:23:50.724Z,2.80
2018-09-28T06:27:54.084Z,2.50
2018-09-28T06:31:57.455Z,2.63
2018-09-28T06:36:00.862Z,3.13
2018-09-28T06:40:04.207Z,2.47
2018-09-28T06:44:07.571Z,3.40
2018-09-28T06:48:11.688Z,2.97
2018-09-28T06:52:15.024Z,2.63
2018-09-28T06:56:18.348Z,2.87
2018-09-28T07:00:21.830Z,3.27
2018-09-28T07:04:25.100Z,2.70
2018-09-28T07:08:28.472Z,2.53
2018-09-28T07:12:31.905Z,3.47
2018-09-28T07:16:35.300Z,2.83
2018-09-28T07:20:38.735Z,3.47
2018-09-28T07:24:42.139Z,3.57
2018-09-28T07:28:45.524Z,2.93
2018-09-28T07:32:48.919Z,3.03
2018-09-28T07:36:52.346Z,3.80
2018-09-28T07:40:55.776Z,3.77
2018-09-28T07:44:59.152Z,3.13
2018-09-28T07:49:02.556Z,3.23
2018-09-28T07:53:06.140Z,3.30
2018-09-28T07:57:09.488Z,3.50
2018-09-28T08:01:12.963Z,3.00
2018-09-28T08:05:16.343Z,3.87
2018-09-28T08:09:19.701Z,3.17
2018-09-28T08:13:23.172Z,3.03
2018-09-28T08:17:26.526Z,3.40
2018-09-28T08:21:29.915Z,3.20
2018-09-28T08:25:33.291Z,3.73
2018-09-28T08:29:36.649Z,3.13
2018-09-28T08:33:40.012Z,3.80
2018-09-28T08:37:43.352Z,3.47
2018-09-28T08:41:46.713Z,3.93
2018-09-28T08:45:50.092Z,3.33
2018-09-28T08:49:53.447Z,4.17
2018-09-28T08:53:56.816Z,4.10
2018-09-28T08:58:00.192Z,3.37
2018-09-28T09:02:03.629Z,3.27
2018-09-28T09:06:06.955Z,3.00
2018-09-28T09:10:10.560Z,3.60
2018-09-28T09:14:13.960Z,3.83
2018-09-28T09:18:17.404Z,3.13
2018-09-28T09:22:20.670Z,3.73
2018-09-28T09:26:24.041Z,3.40
2018-09-28T09:30:27.409Z,4.00
2018-09-28T09:34:30.767Z,3.20
2018-09-28T09:38:34.116Z,3.40
2018-09-28T09:42:37.531Z,4.20
2018-09-28T09:46:40.838Z,3.23
2018-09-28T09:50:44.219Z,3.60
2018-09-28T09:54:47.579Z,2.70
2018-09-28T09:58:50.916Z,2.97
2018-09-28T10:02:59.540Z,2.63
2018-09-28T10:07:02.900Z,3.00
2018-09-28T10:11:06.605Z,3.43
2018-09-28T10:15:09.981Z,2.63
2018-09-28T10:19:13.369Z,2.17
2018-09-28T10:23:16.711Z,3.17
2018-09-28T10:27:20.116Z,3.63
2018-09-28T10:31:23.436Z,3.13
2018-09-28T10:35:26.779Z,2.57
2018-09-28T10:39:30.151Z,2.90
2018-09-28T10:43:33.501Z,3.07
2018-09-28T10:47:36.869Z,2.67
2018-09-28T10:51:40.295Z,2.53
2018-09-28T10:55:43.615Z,2.47
2018-09-28T10:59:46.963Z,2.83
2018-09-28T11:03:50.379Z,2.23
2018-09-28T11:07:53.779Z,3.40
2018-09-28T11:11:57.139Z,2.40
2018-09-28T11:16:00.549Z,3.10
2018-09-28T11:20:04.064Z,2.80
2018-09-28T11:24:07.430Z,2.57
2018-09-28T11:28:10.788Z,2.13
2018-09-28T11:32:14.164Z,2.10
2018-09-28T11:36:17.547Z,2.60
2018-09-28T11:40:20.640Z,2.43
2018-09-28T11:44:23.984Z,2.23
2018-09-28T11:48:27.350Z,2.60
2018-09-28T11:52:30.709Z,1.93
2018-09-28T11:56:34.063Z,1.70
2018-09-28T12:00:37.432Z,1.90
2018-09-28T12:04:40.781Z,2.13
2018-09-28T12:08:44.148Z,1.90
2018-09-28T12:12:47.561Z,2.20
2018-09-28T12:16:50.928Z,2.27
2018-09-28T12:20:54.277Z,2.10
2018-09-28T12:24:57.920Z,2.20
2018-09-28T12:29:01.407Z,2.63
2018-09-28T12:33:04.780Z,2.20
2018-09-28T12:37:08.665Z,2.37
2018-09-28T12:41:12.153Z,2.30
2018-09-28T12:45:16.177Z,2.47
2018-09-28T12:49:19.645Z,2.13
2018-09-28T12:53:23.046Z,2.47
2018-09-28T12:57:26.452Z,2.50
2018-09-28T13:01:29.853Z,2.17
2018-09-28T13:05:33.248Z,2.40
2018-09-28T13:09:36.694Z,2.13
2018-09-28T13:13:40.108Z,2.13
2018-09-28T13:17:43.498Z,1.80
2018-09-28T13:21:46.949Z,1.70
2018-09-28T13:25:50.117Z,1.70
2018-09-28T13:29:53.551Z,2.10
2018-09-28T13:33:56.924Z,2.23
2018-09-28T13:38:00.304Z,1.80
2018-09-28T13:42:03.679Z,1.80
2018-09-28T13:46:07.380Z,2.17
2018-09-28T13:50:10.743Z,1.70
2018-09-28T13:54:14.203Z,1.40
2018-09-28T13:58:17.604Z,1.40
2018-09-28T14:02:20.997Z,1.20
2018-09-28T14:06:24.458Z,1.63
2018-09-28T14:10:27.974Z,1.80
2018-09-28T14:14:31.331Z,2.00
2018-09-28T14:18:34.724Z,1.80
2018-09-28T14:22:38.138Z,1.50
2018-09-28T14:26:41.707Z,1.80
2018-09-28T14:30:45.184Z,1.83
2018-09-28T14:34:48.593Z,1.50
2018-09-28T14:38:51.930Z,1.77
2018-09-28T14:42:55.305Z,1.70
2018-09-28T14:46:58.671Z,2.10
2018-09-28T14:51:02.128Z,1.93
2018-09-28T14:55:05.519Z,1.87
2018-09-28T14:59:08.942Z,2.30
2018-09-28T15:03:12.383Z,1.37
2018-09-28T15:07:15.757Z,1.53
2018-09-28T15:11:19.111Z,1.83
2018-09-28T15:15:22.544Z,1.60
2018-09-28T15:19:26.629Z,1.47
2018-09-28T15:23:30.008Z,1.70
2018-09-28T15:27:33.383Z,1.47
2018-09-28T15:31:36.745Z,1.63
2018-09-28T15:35:40.112Z,2.27
2018-09-28T15:39:49.919Z,1.73
2018-09-28T15:43:53.288Z,1.87
2018-09-28T15:47:56.674Z,2.03
2018-09-28T15:52:00.053Z,1.90
2018-09-28T15:56:03.427Z,1.97
2018-09-28T16:00:07.581Z,2.20
2018-09-28T16:04:10.994Z,2.00
2018-09-28T16:08:14.375Z,1.83
2018-09-28T16:12:17.808Z,1.80
2018-09-28T16:16:21.149Z,1.70
2018-09-28T16:20:24.619Z,2.03
2018-09-28T16:24:27.980Z,2.00
2018-09-28T16:28:31.376Z,1.80
2018-09-28T16:32:34.735Z,2.30
2018-09-28T16:36:38.101Z,1.77
2018-09-28T16:40:41.491Z,2.07
2018-09-28T16:44:44.881Z,1.80
2018-09-28T16:48:48.279Z,2.33
2018-09-28T16:52:51.652Z,1.90
2018-09-28T16:56:54.998Z,1.90
2018-09-28T17:00:58.383Z,2.07
2018-09-28T17:05:01.773Z,2.03
2018-09-28T17:09:07.062Z,2.20
2018-09-28T17:13:10.480Z,2.30
2018-09-28T17:17:13.811Z,1.97
2018-09-28T17:21:17.260Z,2.03
2018-09-28T17:25:20.652Z,2.17
2018-09-28T17:29:24.060Z,1.87
2018-09-28T17:33:27.457Z,2.50
2018-09-28T17:37:30.845Z,2.53
2018-09-28T17:41:34.235Z,2.03
2018-09-28T17:45:37.625Z,2.37
2018-09-28T17:49:41.025Z,2.70
2018-09-28T17:53:44.441Z,7.30
2018-09-28T17:57:47.823Z,4.03
2018-09-28T18:01:51.208Z,2.23
2018-09-28T18:05:54.591Z,2.07
2018-09-28T18:09:57.984Z,1.80
2018-09-28T18:14:01.599Z,2.40
2018-09-28T18:18:05.037Z,2.70
2018-09-28T18:22:08.413Z,1.90
2018-09-28T18:26:11.808Z,2.53
2018-09-28T18:30:15.193Z,2.83
2018-09-28T18:34:18.547Z,2.23
2018-09-28T18:38:21.957Z,2.90
2018-09-28T18:42:25.352Z,3.57
2018-09-28T18:46:28.728Z,2.80
2018-09-28T18:50:32.118Z,2.10
2018-09-28T18:54:35.611Z,2.63
2018-09-28T18:58:39.066Z,2.40
2018-09-28T19:02:42.437Z,2.07
2018-09-28T19:06:45.839Z,1.90
2018-09-28T19:10:49.271Z,2.37
2018-09-28T19:14:52.671Z,2.40
2018-09-28T19:18:56.084Z,2.50
2018-09-28T19:22:59.475Z,2.43
2018-09-28T19:27:02.864Z,1.80
2018-09-28T19:31:06.322Z,2.40
2018-09-28T19:35:09.828Z,2.37
2018-09-28T19:39:13.221Z,2.50
2018-09-28T19:43:16.609Z,2.17
2018-09-28T19:47:19.988Z,2.00
2018-09-28T19:51:23.368Z,2.07
2018-09-28T19:55:26.729Z,2.37
2018-09-28T19:59:30.175Z,2.47
2018-09-28T20:03:33.523Z,2.10
2018-09-28T20:07:37.169Z,1.90
2018-09-28T20:11:40.763Z,2.40
2018-09-28T20:15:44.136Z,2.47
2018-09-28T20:19:47.517Z,2.20
2018-09-28T20:23:50.897Z,2.33
2018-09-28T20:27:54.292Z,1.90
2018-09-28T20:31:57.680Z,2.20
2018-09-28T20:36:01.052Z,2.37
2018-09-28T20:40:04.551Z,2.33
2018-09-28T20:44:07.922Z,2.87
2018-09-28T20:48:11.301Z,2.10
2018-09-28T20:52:14.696Z,2.67
2018-09-28T20:56:18.040Z,2.43
2018-09-28T21:00:21.429Z,2.80
2018-09-28T21:04:24.823Z,2.77
2018-09-28T21:08:28.203Z,2.00
2018-09-28T21:12:31.615Z,1.93
2018-09-28T21:16:34.972Z,2.43
2018-09-28T21:20:38.455Z,2.67
2018-09-28T21:24:41.858Z,2.27
2018-09-28T21:28:45.286Z,2.13
2018-09-28T21:32:48.684Z,2.40
2018-09-28T21:36:52.044Z,2.13
2018-09-28T21:40:55.489Z,2.60
2018-09-28T21:44:58.842Z,2.20
2018-09-28T21:49:02.191Z,2.58
2018-09-28T21:53:05.552Z,2.40
2018-09-28T21:57:08.929Z,2.13
2018-09-28T22:01:18.958Z,2.20
2018-09-28T22:05:22.317Z,2.63
2018-09-28T22:09:25.661Z,2.33
2018-09-28T22:13:29.996Z,2.40
2018-09-28T22:17:33.344Z,2.73
2018-09-28T22:21:36.672Z,2.87
2018-09-28T22:25:40.019Z,2.40
2018-09-28T22:29:43.470Z,2.63
2018-09-28T22:33:46.820Z,2.63
2018-09-28T22:37:50.172Z,3.00
2018-09-28T22:41:53.499Z,2.43
2018-09-28T22:45:56.859Z,2.77
2018-09-28T22:50:00.205Z,2.00
2018-09-28T22:54:03.548Z,2.30
2018-09-28T22:58:06.913Z,2.50
2018-09-28T23:02:10.238Z,3.10
2018-09-28T23:06:13.659Z,2.90
2018-09-28T23:10:26.084Z,3.00
2018-09-28T23:14:29.457Z,3.70
2018-09-28T23:18:32.815Z,4.07
2018-09-28T23:22:36.136Z,4.13
2018-09-28T23:26:39.479Z,3.87
2018-09-28T23:30:42.848Z,3.90
2018-09-28T23:34:46.203Z,4.40
2018-09-28T23:38:49.540Z,4.50
2018-09-28T23:42:52.944Z,4.00
2018-09-28T23:46:56.294Z,4.83
2018-09-28T23:50:59.764Z,4.27
2018-09-28T23:55:03.112Z,4.07
2018-09-28T23:59:06.471Z,3.63
